createdAt,value
2023-01-26T00:02:21.087Z,100742.97
2023-01-26T00:04:49.494Z,100747.70
2023-01-26T00:07:17.642Z,100747.50
2023-01-26T00:09:45.989Z,100745.22
2023-01-26T00:12:14.207Z,100745.10
2023-01-26T00:14:51.561Z,100743.27
2023-01-26T00:17:26.272Z,100735.63
2023-01-26T00:19:55.867Z,100734.77
2023-01-26T00:22:25.514Z,100725.83
2023-01-26T00:24:56.231Z,100721.63
2023-01-26T00:27:24.367Z,100718.79
2023-01-26T00:29:52.585Z,100722.48
2023-01-26T00:32:22.026Z,100718.00
2023-01-26T00:34:50.300Z,100718.52
2023-01-26T00:37:18.923Z,100718.70
2023-01-26T00:39:46.996Z,100717.52
2023-01-26T00:42:16.176Z,100716.76
2023-01-26T00:44:44.543Z,100713.45
2023-01-26T00:47:14.815Z,100709.41
2023-01-26T00:49:43.282Z,100707.67
2023-01-26T00:52:12.778Z,100705.98
2023-01-26T00:54:40.995Z,100708.48
2023-01-26T00:57:09.775Z,100706.06
2023-01-26T00:59:38.084Z,100701.29
2023-01-26T01:02:06.292Z,100701.73
2023-01-26T01:04:35.892Z,100699.73
2023-01-26T01:07:04.066Z,100696.46
2023-01-26T01:09:33.829Z,100698.20
2023-01-26T01:12:01.970Z,100695.95
2023-01-26T01:14:30.442Z,100693.48
2023-01-26T01:16:59.375Z,100686.02
2023-01-26T01:19:27.569Z,100692.40
2023-01-26T01:21:55.927Z,100686.75
2023-01-26T01:24:25.259Z,100683.20
2023-01-26T01:26:53.295Z,100675.26
2023-01-26T01:29:22.338Z,100669.52
2023-01-26T01:31:50.735Z,100670.90
2023-01-26T01:34:18.981Z,100670.29
2023-01-26T01:36:50.637Z,100670.42
2023-01-26T01:39:18.925Z,100666.73
2023-01-26T01:41:47.009Z,100661.77
2023-01-26T01:44:22.887Z,100660.95
2023-01-26T01:46:57.729Z,100661.00
2023-01-26T01:49:28.469Z,100657.52
2023-01-26T01:52:37.043Z,100654.86
2023-01-26T01:55:07.589Z,100643.48
2023-01-26T01:57:47.163Z,100648.58
2023-01-26T02:00:18.619Z,100645.14
2023-01-26T02:03:11.358Z,100639.90
2023-01-26T02:05:43.286Z,100639.92
2023-01-26T02:08:13.822Z,100636.30
2023-01-26T02:10:43.961Z,100635.41
2023-01-26T02:13:12.235Z,100634.51
2023-01-26T02:15:43.383Z,100625.83
2023-01-26T02:18:12.488Z,100623.58
2023-01-26T02:20:43.018Z,100623.23
2023-01-26T02:23:26.497Z,100618.95
2023-01-26T02:25:54.967Z,100618.20
2023-01-26T02:28:26.262Z,100609.47
2023-01-26T02:30:55.143Z,100606.23
2023-01-26T02:33:25.599Z,100607.59
2023-01-26T02:35:54.850Z,100604.26
2023-01-26T02:38:23.639Z,100599.92
2023-01-26T02:41:09.212Z,100592.00
2023-01-26T02:43:38.921Z,100593.05
2023-01-26T02:46:07.258Z,100595.77
2023-01-26T02:48:56.665Z,100589.39
2023-01-26T02:51:25.152Z,100584.63
2023-01-26T02:53:53.659Z,100581.27
2023-01-26T02:56:22.679Z,100580.52
2023-01-26T02:58:52.352Z,100580.27
2023-01-26T03:01:20.446Z,100574.98
2023-01-26T03:03:48.758Z,100570.50
2023-01-26T03:06:17.517Z,100574.32
2023-01-26T03:08:46.108Z,100569.05
2023-01-26T03:11:14.275Z,100565.88
2023-01-26T03:13:43.711Z,100571.08
2023-01-26T03:16:12.114Z,100570.90
2023-01-26T03:19:00.533Z,100570.45
2023-01-26T03:21:47.843Z,100563.61
2023-01-26T03:24:35.176Z,100563.48
2023-01-26T03:27:25.380Z,100568.38
2023-01-26T03:29:55.359Z,100565.82
2023-01-26T03:32:25.229Z,100564.63
2023-01-26T03:34:53.667Z,100558.34
2023-01-26T03:37:22.842Z,100554.54
2023-01-26T03:40:24.210Z,100555.57
2023-01-26T03:43:11.305Z,100546.09
2023-01-26T03:45:58.036Z,100541.92
2023-01-26T03:48:45.721Z,100543.73
2023-01-26T03:51:32.654Z,100543.13
2023-01-26T03:54:19.734Z,100546.81
2023-01-26T03:56:48.187Z,100549.27
2023-01-26T03:59:17.075Z,100553.17
2023-01-26T04:02:05.152Z,100553.91
2023-01-26T04:04:54.370Z,100559.35
2023-01-26T04:07:45.789Z,100562.66
2023-01-26T04:10:13.946Z,100563.73
2023-01-26T04:13:04.779Z,100565.50
2023-01-26T04:15:52.801Z,100570.17
2023-01-26T04:18:40.837Z,100572.67
2023-01-26T04:21:28.067Z,100576.25
2023-01-26T04:23:58.052Z,100577.68
2023-01-26T04:26:27.953Z,100574.42
2023-01-26T04:28:56.282Z,100571.73
2023-01-26T04:31:24.759Z,100570.35
2023-01-26T04:33:52.988Z,100573.88
2023-01-26T04:36:22.768Z,100571.02
2023-01-26T04:38:52.547Z,100571.55
2023-01-26T04:41:22.338Z,100571.27
2023-01-26T04:44:00.363Z,100568.86
2023-01-26T04:46:29.076Z,100566.73
2023-01-26T04:48:57.692Z,100565.80
2023-01-26T04:51:28.422Z,100567.77
2023-01-26T04:53:57.140Z,100566.23
2023-01-26T04:56:26.405Z,100566.05
2023-01-26T04:59:00.613Z,100563.77
2023-01-26T05:01:34.809Z,100557.38
2023-01-26T05:04:05.885Z,100554.13
2023-01-26T05:06:35.562Z,100555.71
2023-01-26T05:09:04.075Z,100552.14
2023-01-26T05:11:39.225Z,100548.09
2023-01-26T05:14:31.002Z,100546.52
2023-01-26T05:17:26.081Z,100548.46
2023-01-26T05:20:19.037Z,100547.01
2023-01-26T05:23:04.112Z,100542.39
2023-01-26T05:25:56.209Z,100548.27
2023-01-26T05:28:25.881Z,100544.26
2023-01-26T05:30:54.212Z,100545.23
2023-01-26T05:33:25.492Z,100543.89
2023-01-26T05:35:54.725Z,100545.48
2023-01-26T05:38:22.888Z,100544.86
2023-01-26T05:40:51.116Z,100544.48
2023-01-26T05:43:19.776Z,100545.73
2023-01-26T05:46:09.489Z,100547.05
2023-01-26T05:48:39.215Z,100546.08
2023-01-26T05:51:07.877Z,100546.59
2023-01-26T05:53:38.244Z,100545.16
2023-01-26T05:56:06.842Z,100543.34
2023-01-26T05:58:37.210Z,100543.44
2023-01-26T06:01:06.249Z,100545.41
2023-01-26T06:03:39.994Z,100546.88
2023-01-26T06:06:08.687Z,100547.20
2023-01-26T06:08:42.632Z,100548.67
2023-01-26T06:11:34.834Z,100550.53
2023-01-26T06:14:21.469Z,100550.11
2023-01-26T06:16:54.467Z,100550.30
2023-01-26T06:19:26.613Z,100552.78
2023-01-26T06:22:01.369Z,100550.64
2023-01-26T06:24:30.905Z,100550.86
2023-01-26T06:27:03.058Z,100552.67
2023-01-26T06:29:32.038Z,100551.09
2023-01-26T06:32:04.828Z,100550.23
2023-01-26T06:34:34.001Z,100551.80
2023-01-26T06:37:04.654Z,100552.64
2023-01-26T06:39:36.559Z,100554.14
2023-01-26T06:42:05.367Z,100558.90
2023-01-26T06:44:36.603Z,100560.48
2023-01-26T06:47:06.391Z,100558.73
2023-01-26T06:49:34.830Z,100554.52
2023-01-26T06:52:22.236Z,100553.48
2023-01-26T06:54:52.781Z,100555.67
2023-01-26T06:57:39.795Z,100558.07
2023-01-26T07:00:25.521Z,100553.67
2023-01-26T07:03:15.043Z,100553.46
2023-01-26T07:05:43.193Z,100550.07
2023-01-26T07:08:12.705Z,100551.13
2023-01-26T07:10:40.828Z,100554.10
2023-01-26T07:13:09.834Z,100553.30
2023-01-26T07:15:37.966Z,100556.22
2023-01-26T07:18:06.071Z,100557.30
2023-01-26T07:20:34.296Z,100555.02
2023-01-26T07:23:02.364Z,100548.63
2023-01-26T07:25:31.846Z,100550.35
2023-01-26T07:28:00.196Z,100549.92
2023-01-26T07:30:28.666Z,100549.36
2023-01-26T07:33:00.486Z,100550.85
2023-01-26T07:35:29.993Z,100549.07
2023-01-26T07:37:59.176Z,100547.79
2023-01-26T07:40:27.735Z,100545.06
2023-01-26T07:42:56.830Z,100544.42
2023-01-26T07:46:00.370Z,100544.01
2023-01-26T07:48:29.961Z,100537.24
2023-01-26T07:50:59.845Z,100534.84
2023-01-26T07:53:29.568Z,100533.66
2023-01-26T07:56:12.306Z,100531.18
2023-01-26T07:58:40.847Z,100535.27
2023-01-26T08:01:10.823Z,100534.61
2023-01-26T08:03:39.207Z,100536.33
2023-01-26T08:06:11.783Z,100539.27
2023-01-26T08:08:41.360Z,100536.57
2023-01-26T08:11:10.576Z,100534.95
2023-01-26T08:13:38.877Z,100542.84
2023-01-26T08:16:11.049Z,100543.44
2023-01-26T08:18:43.504Z,100541.55
2023-01-26T08:21:13.225Z,100540.89
2023-01-26T08:23:41.681Z,100538.50
2023-01-26T08:26:13.546Z,100541.92
2023-01-26T08:28:41.730Z,100545.80
2023-01-26T08:31:14.287Z,100541.73
2023-01-26T08:33:42.931Z,100537.74
2023-01-26T08:36:12.210Z,100535.53
2023-01-26T08:38:40.519Z,100532.92
2023-01-26T08:41:09.426Z,100527.94
2023-01-26T08:43:37.535Z,100526.17
2023-01-26T08:46:05.993Z,100520.67
2023-01-26T08:48:34.539Z,100517.55
2023-01-26T08:51:04.011Z,100512.11
2023-01-26T08:53:33.222Z,100515.09
2023-01-26T08:56:06.078Z,100514.69
2023-01-26T08:58:35.152Z,100513.61
2023-01-26T09:01:07.066Z,100508.92
2023-01-26T09:03:36.361Z,100505.34
2023-01-26T09:06:05.328Z,100508.80
2023-01-26T09:08:33.554Z,100502.77
2023-01-26T09:11:02.443Z,100501.95
2023-01-26T09:13:31.347Z,100501.95
2023-01-26T09:16:20.175Z,100501.35
2023-01-26T09:18:54.759Z,100499.50
2023-01-26T09:21:24.198Z,100501.74
2023-01-26T09:23:52.566Z,100499.33
2023-01-26T09:26:20.906Z,100501.88
2023-01-26T09:28:52.794Z,100499.77
2023-01-26T09:31:21.274Z,100497.11
2023-01-26T09:33:50.892Z,100496.77
2023-01-26T09:36:19.285Z,100492.40
2023-01-26T09:38:47.570Z,100488.35
2023-01-26T09:41:28.670Z,100488.84
2023-01-26T09:44:09.589Z,100485.58
2023-01-26T09:46:40.831Z,100483.63
2023-01-26T09:49:19.502Z,100480.23
2023-01-26T09:52:03.531Z,100476.13
2023-01-26T09:54:40.704Z,100474.23
2023-01-26T09:57:17.321Z,100470.95
2023-01-26T09:59:53.949Z,100475.27
2023-01-26T10:02:50.235Z,100472.55
2023-01-26T10:05:36.302Z,100466.19
2023-01-26T10:08:14.967Z,100465.18
2023-01-26T10:10:52.968Z,100463.76
2023-01-26T10:13:22.369Z,100463.08
2023-01-26T10:16:13.126Z,100462.70
2023-01-26T10:18:49.797Z,100462.86
2023-01-26T10:21:19.970Z,100461.26
2023-01-26T10:23:56.169Z,100455.59
2023-01-26T10:26:31.340Z,100450.95
2023-01-26T10:28:59.507Z,100442.42
2023-01-26T10:31:29.664Z,100439.14
2023-01-26T10:34:17.315Z,100438.04
2023-01-26T10:36:49.397Z,100430.85
2023-01-26T10:39:18.069Z,100428.91
2023-01-26T10:42:00.245Z,100427.23
2023-01-26T10:44:39.484Z,100418.30
2023-01-26T10:47:18.068Z,100412.63
2023-01-26T10:49:46.243Z,100415.77
2023-01-26T10:52:25.544Z,100413.73
2023-01-26T10:55:16.501Z,100416.64
2023-01-26T10:57:44.696Z,100410.38
2023-01-26T11:00:20.290Z,100413.84
2023-01-26T11:02:50.585Z,100412.90
2023-01-26T11:05:21.144Z,100409.26
2023-01-26T11:08:00.611Z,100406.66
2023-01-26T11:10:36.335Z,100401.60
2023-01-26T11:13:19.471Z,100395.80
2023-01-26T11:16:11.915Z,100394.60
2023-01-26T11:18:59.499Z,100390.65
2023-01-26T11:21:32.362Z,100388.81
2023-01-26T11:24:05.666Z,100387.21
2023-01-26T11:27:06.020Z,100386.77
2023-01-26T11:30:18.949Z,100382.51
2023-01-26T11:33:07.439Z,100384.46
2023-01-26T11:35:51.135Z,100385.27
2023-01-26T11:38:22.036Z,100376.34
2023-01-26T11:41:11.372Z,100374.60
2023-01-26T11:44:03.308Z,100375.39
2023-01-26T11:46:51.875Z,100372.27
2023-01-26T11:49:34.983Z,100368.86
2023-01-26T11:52:17.423Z,100365.91
2023-01-26T11:54:58.001Z,100369.73
2023-01-26T11:57:32.648Z,100372.39
2023-01-26T12:00:02.091Z,100368.98
2023-01-26T12:02:42.870Z,100364.43
2023-01-26T12:05:48.235Z,100361.58
2023-01-26T12:08:26.513Z,100359.39
2023-01-26T12:10:54.569Z,100356.23
2023-01-26T12:13:39.477Z,100355.77
2023-01-26T12:16:14.483Z,100350.81
2023-01-26T12:18:58.687Z,100351.58
2023-01-26T12:21:30.682Z,100348.40
2023-01-26T12:24:03.075Z,100347.42
2023-01-26T12:26:37.193Z,100349.98
2023-01-26T12:29:17.335Z,100345.05
2023-01-26T12:32:05.756Z,100348.25
2023-01-26T12:34:33.988Z,100349.23
2023-01-26T12:37:02.303Z,100350.60
2023-01-26T12:39:30.706Z,100349.52
2023-01-26T12:42:12.380Z,100345.67
2023-01-26T12:44:42.855Z,100341.56
2023-01-26T12:47:25.005Z,100339.36
2023-01-26T12:50:04.474Z,100334.12
2023-01-26T12:52:43.635Z,100336.04
2023-01-26T12:55:14.345Z,100334.01
2023-01-26T12:57:46.650Z,100330.34
2023-01-26T13:00:21.818Z,100334.52
2023-01-26T13:02:57.191Z,100335.98
2023-01-26T13:05:30.762Z,100333.05
2023-01-26T13:07:59.601Z,100330.41
2023-01-26T13:10:29.430Z,100327.77
2023-01-26T13:13:02.275Z,100324.18
2023-01-26T13:15:32.344Z,100319.22
2023-01-26T13:18:02.295Z,100321.80
2023-01-26T13:20:43.563Z,100321.39
2023-01-26T13:23:37.754Z,100323.81
2023-01-26T13:26:25.453Z,100323.76
2023-01-26T13:28:54.509Z,100320.44
2023-01-26T13:31:41.824Z,100319.80
2023-01-26T13:34:10.000Z,100319.25
2023-01-26T13:36:43.808Z,100322.11
2023-01-26T13:39:31.757Z,100323.63
2023-01-26T13:42:00.245Z,100324.64
2023-01-26T13:44:38.661Z,100322.72
2023-01-26T13:47:12.629Z,100322.87
2023-01-26T13:49:44.666Z,100323.35
2023-01-26T13:52:23.852Z,100323.45
2023-01-26T13:55:03.287Z,100323.67
2023-01-26T13:57:31.809Z,100325.46
2023-01-26T14:00:00.620Z,100322.82
2023-01-26T14:02:33.798Z,100320.07
2023-01-26T14:05:02.276Z,100317.73
2023-01-26T14:07:43.133Z,100317.07
2023-01-26T14:10:20.826Z,100316.75
2023-01-26T14:12:56.989Z,100316.61
2023-01-26T14:15:47.269Z,100312.61
2023-01-26T14:18:28.608Z,100314.70
2023-01-26T14:21:16.654Z,100313.98
2023-01-26T14:23:44.908Z,100307.52
2023-01-26T14:26:50.213Z,100307.85
2023-01-26T14:29:29.307Z,100307.44
2023-01-26T14:31:59.995Z,100305.27
2023-01-26T14:34:30.932Z,100305.71
2023-01-26T14:37:16.359Z,100307.73
2023-01-26T14:39:48.165Z,100306.41
2023-01-26T14:42:20.460Z,100301.34
2023-01-26T14:44:49.126Z,100296.19
2023-01-26T14:47:27.482Z,100295.15
2023-01-26T14:50:05.388Z,100294.39
2023-01-26T14:52:38.393Z,100291.94
2023-01-26T14:55:31.005Z,100294.88
2023-01-26T14:58:08.982Z,100294.05
2023-01-26T15:00:58.736Z,100293.84
2023-01-26T15:03:34.708Z,100288.09
2023-01-26T15:06:15.824Z,100284.36
2023-01-26T15:09:02.880Z,100282.06
2023-01-26T15:11:58.812Z,100280.15
2023-01-26T15:14:37.290Z,100281.51
2023-01-26T15:17:05.898Z,100281.55
2023-01-26T15:19:41.262Z,100284.62
2023-01-26T15:22:29.572Z,100281.52
2023-01-26T15:25:02.564Z,100275.45
2023-01-26T15:27:32.982Z,100271.88
2023-01-26T15:30:01.800Z,100275.66
2023-01-26T15:32:32.548Z,100286.46
2023-01-26T15:35:17.804Z,100285.84
2023-01-26T15:37:46.072Z,100285.34
2023-01-26T15:40:15.488Z,100285.95
2023-01-26T15:42:43.735Z,100285.95
2023-01-26T15:45:23.708Z,100285.16
2023-01-26T15:47:51.993Z,100280.54
2023-01-26T15:50:27.936Z,100287.36
2023-01-26T15:52:56.630Z,100284.58
2023-01-26T15:55:26.820Z,100284.47
2023-01-26T15:57:55.109Z,100285.26
2023-01-26T16:00:23.730Z,100286.86
2023-01-26T16:02:53.247Z,100284.73
2023-01-26T16:05:22.980Z,100284.23
2023-01-26T16:07:52.848Z,100280.14
2023-01-26T16:10:21.094Z,100280.95
2023-01-26T16:12:51.932Z,100281.27
2023-01-26T16:15:39.381Z,100281.61
2023-01-26T16:18:07.803Z,100280.90
2023-01-26T16:20:37.762Z,100284.36
2023-01-26T16:23:27.653Z,100278.55
2023-01-26T16:25:55.931Z,100280.69
2023-01-26T16:28:24.110Z,100283.95
2023-01-26T16:30:52.318Z,100278.76
2023-01-26T16:33:21.692Z,100277.02
2023-01-26T16:35:50.075Z,100275.98
2023-01-26T16:38:18.458Z,100275.83
2023-01-26T16:40:47.719Z,100276.18
2023-01-26T16:43:24.133Z,100282.27
2023-01-26T16:45:52.843Z,100278.74
2023-01-26T16:48:20.915Z,100279.02
2023-01-26T16:50:53.334Z,100278.90
2023-01-26T16:53:30.556Z,100277.20
2023-01-26T16:55:59.007Z,100280.05
2023-01-26T16:58:27.432Z,100286.34
2023-01-26T17:00:55.663Z,100288.98
2023-01-26T17:03:24.219Z,100292.06
2023-01-26T17:05:56.038Z,100285.78
2023-01-26T17:08:24.406Z,100286.27
2023-01-26T17:11:01.986Z,100285.63
2023-01-26T17:13:31.717Z,100285.02
2023-01-26T17:16:00.095Z,100283.84
2023-01-26T17:18:33.586Z,100288.38
2023-01-26T17:21:03.069Z,100284.36
2023-01-26T17:23:31.578Z,100282.87
2023-01-26T17:26:00.496Z,100279.83
2023-01-26T17:28:28.678Z,100279.16
2023-01-26T17:31:00.059Z,100280.09
2023-01-26T17:33:30.021Z,100283.70
2023-01-26T17:36:02.201Z,100285.33
2023-01-26T17:38:30.678Z,100287.52
2023-01-26T17:40:59.178Z,100286.88
2023-01-26T17:43:27.425Z,100283.52
2023-01-26T17:46:03.908Z,100284.04
2023-01-26T17:48:33.259Z,100282.64
2023-01-26T17:51:01.535Z,100280.24
2023-01-26T17:53:29.839Z,100280.23
2023-01-26T17:55:57.979Z,100287.29
2023-01-26T17:58:26.106Z,100286.98
2023-01-26T18:00:54.312Z,100286.18
2023-01-26T18:03:26.432Z,100288.34
2023-01-26T18:05:55.221Z,100287.60
2023-01-26T18:08:23.892Z,100284.85
2023-01-26T18:11:02.621Z,100280.63
2023-01-26T18:13:32.104Z,100279.63
2023-01-26T18:16:00.711Z,100284.64
2023-01-26T18:18:29.568Z,100283.20
2023-01-26T18:20:58.133Z,100278.48
2023-01-26T18:23:26.348Z,100278.01
2023-01-26T18:25:54.706Z,100277.25
2023-01-26T18:28:23.240Z,100278.18
2023-01-26T18:30:51.315Z,100282.08
2023-01-26T18:33:19.486Z,100282.41
2023-01-26T18:35:47.560Z,100279.39
2023-01-26T18:38:15.890Z,100279.54
2023-01-26T18:40:44.196Z,100277.38
2023-01-26T18:43:12.642Z,100276.58
2023-01-26T18:45:42.228Z,100277.81
2023-01-26T18:48:10.401Z,100276.02
2023-01-26T18:50:39.141Z,100272.96
2023-01-26T18:53:07.683Z,100273.33
2023-01-26T18:55:36.015Z,100269.34
2023-01-26T18:58:04.137Z,100270.69
2023-01-26T19:00:32.566Z,100270.92
2023-01-26T19:03:00.647Z,100263.77
2023-01-26T19:05:29.552Z,100262.70
2023-01-26T19:07:57.801Z,100267.09
2023-01-26T19:10:27.935Z,100266.16
2023-01-26T19:12:56.697Z,100268.74
2023-01-26T19:15:25.101Z,100263.59
2023-01-26T19:17:53.602Z,100266.59
2023-01-26T19:20:22.432Z,100264.54
2023-01-26T19:22:55.324Z,100264.30
2023-01-26T19:25:25.497Z,100263.64
2023-01-26T19:27:53.823Z,100267.64
2023-01-26T19:30:23.664Z,100268.15
2023-01-26T19:33:10.592Z,100274.73
2023-01-26T19:35:38.952Z,100270.85
2023-01-26T19:38:07.091Z,100264.19
2023-01-26T19:40:38.189Z,100264.90
2023-01-26T19:43:06.930Z,100262.23
2023-01-26T19:45:35.550Z,100262.27
2023-01-26T19:48:03.907Z,100264.00
2023-01-26T19:50:32.101Z,100265.23
2023-01-26T19:53:00.189Z,100260.69
2023-01-26T19:55:28.317Z,100260.29
2023-01-26T19:57:56.728Z,100261.43
2023-01-26T20:00:26.160Z,100260.17
2023-01-26T20:02:54.280Z,100255.52
2023-01-26T20:05:22.688Z,100251.92
2023-01-26T20:07:51.024Z,100245.39
2023-01-26T20:10:21.706Z,100242.10
2023-01-26T20:12:55.935Z,100238.86
2023-01-26T20:15:24.758Z,100235.47
2023-01-26T20:17:54.321Z,100229.80
2023-01-26T20:20:22.482Z,100229.93
2023-01-26T20:22:50.518Z,100230.45
2023-01-26T20:25:18.635Z,100230.84
2023-01-26T20:27:47.226Z,100230.35
2023-01-26T20:30:15.863Z,100230.33
2023-01-26T20:32:44.112Z,100229.28
2023-01-26T20:35:13.396Z,100228.59
2023-01-26T20:37:45.028Z,100234.02
2023-01-26T20:40:13.692Z,100231.49
2023-01-26T20:42:42.426Z,100232.53
2023-01-26T20:45:11.434Z,100231.16
2023-01-26T20:47:40.659Z,100232.88
2023-01-26T20:50:10.259Z,100233.53
2023-01-26T20:52:39.055Z,100232.13
2023-01-26T20:55:08.290Z,100226.77
2023-01-26T20:57:37.592Z,100227.86
2023-01-26T21:00:07.465Z,100231.76
2023-01-26T21:02:35.616Z,100232.60
2023-01-26T21:05:05.814Z,100231.95
2023-01-26T21:07:34.572Z,100228.89
2023-01-26T21:10:02.912Z,100228.89
2023-01-26T21:12:31.196Z,100226.10
2023-01-26T21:14:59.274Z,100225.39
2023-01-26T21:17:28.725Z,100223.30
2023-01-26T21:19:57.222Z,100217.78
2023-01-26T21:22:25.238Z,100217.23
2023-01-26T21:24:53.768Z,100210.88
2023-01-26T21:27:21.892Z,100207.34
2023-01-26T21:29:50.199Z,100203.84
2023-01-26T21:32:18.326Z,100201.45
2023-01-26T21:34:46.318Z,100200.04
2023-01-26T21:37:15.486Z,100198.99
2023-01-26T21:39:44.409Z,100200.95
2023-01-26T21:42:12.704Z,100202.61
2023-01-26T21:45:00.156Z,100203.02
2023-01-26T21:47:28.474Z,100201.44
2023-01-26T21:49:58.704Z,100200.20
2023-01-26T21:52:45.267Z,100196.59
2023-01-26T21:55:13.322Z,100195.35
2023-01-26T21:58:00.171Z,100194.85
2023-01-26T22:00:28.665Z,100196.77
2023-01-26T22:02:59.665Z,100198.69
2023-01-26T22:05:27.708Z,100198.68
2023-01-26T22:08:01.052Z,100199.12
2023-01-26T22:10:29.276Z,100196.70
2023-01-26T22:12:57.530Z,100194.95
2023-01-26T22:15:26.030Z,100194.13
2023-01-26T22:18:00.331Z,100197.61
2023-01-26T22:20:28.386Z,100191.77
2023-01-26T22:22:56.431Z,100192.30
2023-01-26T22:25:24.676Z,100193.81
2023-01-26T22:27:52.785Z,100187.39
2023-01-26T22:30:21.314Z,100186.27
2023-01-26T22:32:49.852Z,100181.05
2023-01-26T22:35:18.474Z,100179.34
2023-01-26T22:37:46.575Z,100178.85
2023-01-26T22:40:15.528Z,100179.07
2023-01-26T22:42:43.615Z,100174.16
2023-01-26T22:45:12.122Z,100171.25
2023-01-26T22:47:41.287Z,100169.27
2023-01-26T22:50:10.728Z,100169.51
2023-01-26T22:52:39.500Z,100168.39
2023-01-26T22:55:07.933Z,100165.15
2023-01-26T22:57:36.063Z,100162.88
2023-01-26T23:00:06.272Z,100167.48
2023-01-26T23:02:34.817Z,100162.72
2023-01-26T23:05:03.167Z,100162.68
2023-01-26T23:07:31.461Z,100166.58
2023-01-26T23:09:59.843Z,100166.49
2023-01-26T23:12:28.050Z,100162.00
2023-01-26T23:14:59.655Z,100162.40
2023-01-26T23:17:28.831Z,100162.60
2023-01-26T23:19:57.985Z,100160.26
2023-01-26T23:22:26.259Z,100159.22
2023-01-26T23:25:12.929Z,100151.29
2023-01-26T23:27:40.986Z,100154.48
2023-01-26T23:30:10.282Z,100158.23
2023-01-26T23:32:39.058Z,100156.63
2023-01-26T23:35:07.440Z,100156.27
2023-01-26T23:37:37.327Z,100158.43
2023-01-26T23:40:06.308Z,100154.14
2023-01-26T23:42:45.261Z,100154.81
2023-01-26T23:45:22.595Z,100155.14
2023-01-26T23:47:50.810Z,100156.51
2023-01-26T23:50:19.066Z,100159.03
2023-01-26T23:52:47.353Z,100157.71
2023-01-26T23:55:15.732Z,100152.32
2023-01-26T23:57:43.820Z,100150.95
